sensor_id;sensor_type;location;lat;lon;timestamp;pressure;altitude;pressure_sealevel;temperature;humidity
48630;BME280;34426;52.180;4.462;2023-07-30T00:00:42;100904.84;;;17.82;85.47
48630;BME280;34426;52.180;4.462;2023-07-30T00:03:08;100905.25;;;17.89;85.45
48630;BME280;34426;52.180;4.462;2023-07-30T00:05:35;100903.47;;;17.93;85.12
48630;BME280;34426;52.180;4.462;2023-07-30T00:08:00;100901.28;;;17.90;85.17
48630;BME280;34426;52.180;4.462;2023-07-30T00:10:26;100908.81;;;17.95;85.06
48630;BME280;34426;52.180;4.462;2023-07-30T00:12:51;100915.31;;;17.95;85.40
48630;BME280;34426;52.180;4.462;2023-07-30T00:15:17;100913.66;;;17.94;85.18
48630;BME280;34426;52.180;4.462;2023-07-30T00:17:42;100910.50;;;17.96;85.18
48630;BME280;34426;52.180;4.462;2023-07-30T00:20:08;100911.97;;;17.93;85.42
48630;BME280;34426;52.180;4.462;2023-07-30T00:22:35;100903.78;;;17.92;85.45
48630;BME280;34426;52.180;4.462;2023-07-30T00:25:01;100912.28;;;17.92;85.54
48630;BME280;34426;52.180;4.462;2023-07-30T00:27:26;100908.31;;;17.93;85.44
48630;BME280;34426;52.180;4.462;2023-07-30T00:29:52;100913.03;;;17.98;85.57
48630;BME280;34426;52.180;4.462;2023-07-30T00:32:20;100913.53;;;18.00;85.45
48630;BME280;34426;52.180;4.462;2023-07-30T00:34:46;100911.88;;;17.99;85.39
48630;BME280;34426;52.180;4.462;2023-07-30T00:37:11;100917.84;;;17.97;85.61
48630;BME280;34426;52.180;4.462;2023-07-30T00:39:38;100921.19;;;17.99;85.70
48630;BME280;34426;52.180;4.462;2023-07-30T00:42:04;100926.00;;;17.99;85.73
48630;BME280;34426;52.180;4.462;2023-07-30T00:44:30;100932.94;;;18.06;85.39
48630;BME280;34426;52.180;4.462;2023-07-30T00:46:55;100929.16;;;18.11;85.18
48630;BME280;34426;52.180;4.462;2023-07-30T00:49:21;100933.13;;;18.10;85.42
48630;BME280;34426;52.180;4.462;2023-07-30T00:51:46;100935.66;;;18.11;84.96
48630;BME280;34426;52.180;4.462;2023-07-30T00:54:12;100927.28;;;18.06;84.97
48630;BME280;34426;52.180;4.462;2023-07-30T00:56:42;100932.50;;;18.13;85.21
48630;BME280;34426;52.180;4.462;2023-07-30T00:59:13;100933.22;;;18.18;85.28
48630;BME280;34426;52.180;4.462;2023-07-30T01:01:41;100934.38;;;18.17;85.62
48630;BME280;34426;52.180;4.462;2023-07-30T01:04:07;100936.91;;;18.19;85.56
48630;BME280;34426;52.180;4.462;2023-07-30T01:06:33;100935.22;;;18.18;85.77
48630;BME280;34426;52.180;4.462;2023-07-30T01:08:59;100940.88;;;18.18;85.99
48630;BME280;34426;52.180;4.462;2023-07-30T01:11:24;100936.91;;;18.19;85.76
48630;BME280;34426;52.180;4.462;2023-07-30T01:13:51;100930.41;;;18.18;85.88
48630;BME280;34426;52.180;4.462;2023-07-30T01:16:17;100937.84;;;18.14;85.62
48630;BME280;34426;52.180;4.462;2023-07-30T01:18:42;100932.50;;;18.13;85.96
48630;BME280;34426;52.180;4.462;2023-07-30T01:21:09;100931.88;;;18.16;86.06
48630;BME280;34426;52.180;4.462;2023-07-30T01:23:35;100931.97;;;18.11;86.07
48630;BME280;34426;52.180;4.462;2023-07-30T01:26:03;100930.00;;;18.11;86.25
48630;BME280;34426;52.180;4.462;2023-07-30T01:28:36;100937.31;;;18.12;86.11
48630;BME280;34426;52.180;4.462;2023-07-30T01:31:03;100935.66;;;18.11;86.37
48630;BME280;34426;52.180;4.462;2023-07-30T01:33:30;100931.47;;;18.09;86.32
48630;BME280;34426;52.180;4.462;2023-07-30T01:35:57;100942.16;;;18.12;86.29
48630;BME280;34426;52.180;4.462;2023-07-30T01:38:25;100939.31;;;18.12;86.42
48630;BME280;34426;52.180;4.462;2023-07-30T01:40:51;100950.13;;;18.10;86.46
48630;BME280;34426;52.180;4.462;2023-07-30T01:43:17;100950.13;;;18.10;86.63
48630;BME280;34426;52.180;4.462;2023-07-30T01:45:43;100937.13;;;18.09;86.65
48630;BME280;34426;52.180;4.462;2023-07-30T01:48:08;100941.75;;;18.05;86.73
48630;BME280;34426;52.180;4.462;2023-07-30T01:50:34;100942.88;;;18.04;86.66
48630;BME280;34426;52.180;4.462;2023-07-30T01:52:59;100949.38;;;18.04;87.16
48630;BME280;34426;52.180;4.462;2023-07-30T01:55:26;100959.88;;;18.04;87.20
48630;BME280;34426;52.180;4.462;2023-07-30T01:57:52;100952.53;;;18.03;87.15
48630;BME280;34426;52.180;4.462;2023-07-30T02:00:17;100948.03;;;18.02;87.23
48630;BME280;34426;52.180;4.462;2023-07-30T02:02:43;100951.19;;;18.00;87.19
48630;BME280;34426;52.180;4.462;2023-07-30T02:05:08;100949.72;;;18.03;86.83
48630;BME280;34426;52.180;4.462;2023-07-30T02:07:34;100954.94;;;17.95;87.17
48630;BME280;34426;52.180;4.462;2023-07-30T02:09:59;100949.28;;;17.95;86.97
48630;BME280;34426;52.180;4.462;2023-07-30T02:12:26;100943.63;;;17.95;87.04
48630;BME280;34426;52.180;4.462;2023-07-30T02:14:52;100943.00;;;17.99;86.40
48630;BME280;34426;52.180;4.462;2023-07-30T02:17:18;100949.06;;;17.92;86.04
48630;BME280;34426;52.180;4.462;2023-07-30T02:19:43;100943.63;;;17.95;85.16
48630;BME280;34426;52.180;4.462;2023-07-30T02:22:09;100947.59;;;17.94;84.50
48630;BME280;34426;52.180;4.462;2023-07-30T02:24:34;100950.44;;;17.94;84.11
48630;BME280;34426;52.180;4.462;2023-07-30T02:27:00;100945.31;;;17.97;83.85
48630;BME280;34426;52.180;4.462;2023-07-30T02:29:27;100948.56;;;18.04;83.46
48630;BME280;34426;52.180;4.462;2023-07-30T02:31:53;100933.56;;;18.03;82.85
48630;BME280;34426;52.180;4.462;2023-07-30T02:34:19;100944.25;;;18.06;82.33
48630;BME280;34426;52.180;4.462;2023-07-30T02:36:45;100946.78;;;18.08;81.78
48630;BME280;34426;52.180;4.462;2023-07-30T02:39:10;100949.06;;;18.06;81.06
48630;BME280;34426;52.180;4.462;2023-07-30T02:41:36;100937.75;;;18.06;80.27
48630;BME280;34426;52.180;4.462;2023-07-30T02:44:04;100940.47;;;18.11;79.21
48630;BME280;34426;52.180;4.462;2023-07-30T02:46:31;100943.84;;;18.13;77.09
48630;BME280;34426;52.180;4.462;2023-07-30T02:48:56;100932.19;;;18.14;76.79
48630;BME280;34426;52.180;4.462;2023-07-30T02:51:22;100931.34;;;18.14;76.57
48630;BME280;34426;52.180;4.462;2023-07-30T02:53:51;100938.38;;;18.16;76.24
48630;BME280;34426;52.180;4.462;2023-07-30T02:56:17;100941.22;;;18.16;76.23
48630;BME280;34426;52.180;4.462;2023-07-30T02:58:42;100938.38;;;18.16;75.95
48630;BME280;34426;52.180;4.462;2023-07-30T03:01:08;100942.69;;;18.14;72.65
48630;BME280;34426;52.180;4.462;2023-07-30T03:03:35;100946.13;;;18.11;70.26
48630;BME280;34426;52.180;4.462;2023-07-30T03:06:00;100940.47;;;18.11;69.66
48630;BME280;34426;52.180;4.462;2023-07-30T03:08:26;100943.63;;;18.09;68.90
48630;BME280;34426;52.180;4.462;2023-07-30T03:10:52;100938.59;;;18.06;68.99
48630;BME280;34426;52.180;4.462;2023-07-30T03:13:19;100943.72;;;18.04;69.52
48630;BME280;34426;52.180;4.462;2023-07-30T03:15:44;100944.66;;;18.00;70.28
48630;BME280;34426;52.180;4.462;2023-07-30T03:18:10;100941.22;;;18.03;70.92
48630;BME280;34426;52.180;4.462;2023-07-30T03:20:37;100944.88;;;18.03;71.36
48630;BME280;34426;52.180;4.462;2023-07-30T03:23:02;100948.56;;;18.04;70.82
48630;BME280;34426;52.180;4.462;2023-07-30T03:25:28;100948.34;;;18.00;71.08
48630;BME280;34426;52.180;4.462;2023-07-30T03:27:54;100950.66;;;17.98;71.15
48630;BME280;34426;52.180;4.462;2023-07-30T03:30:19;100957.78;;;17.95;71.25
48630;BME280;34426;52.180;4.462;2023-07-30T03:32:45;100955.25;;;17.94;71.17
48630;BME280;34426;52.180;4.462;2023-07-30T03:35:10;100939.44;;;17.93;71.53
48630;BME280;34426;52.180;4.462;2023-07-30T03:37:37;100956.19;;;17.89;71.27
48630;BME280;34426;52.180;4.462;2023-07-30T03:40:03;100951.78;;;17.83;66.92
48630;BME280;34426;52.180;4.462;2023-07-30T03:42:31;100943.84;;;17.85;65.72
48630;BME280;34426;52.180;4.462;2023-07-30T03:44:57;100950.66;;;17.84;63.17
48630;BME280;34426;52.180;4.462;2023-07-30T03:47:22;100946.97;;;17.84;62.95
48630;BME280;34426;52.180;4.462;2023-07-30T03:49:48;100949.50;;;17.85;62.63
48630;BME280;34426;52.180;4.462;2023-07-30T03:52:13;100947.81;;;17.84;63.31
48630;BME280;34426;52.180;4.462;2023-07-30T03:54:40;100952.31;;;17.85;63.89
48630;BME280;34426;52.180;4.462;2023-07-30T03:57:06;100951.78;;;17.83;64.51
48630;BME280;34426;52.180;4.462;2023-07-30T03:59:32;100953.56;;;17.79;65.07
48630;BME280;34426;52.180;4.462;2023-07-30T04:01:57;100950.56;;;17.76;65.28
48630;BME280;34426;52.180;4.462;2023-07-30T04:04:23;100958.84;;;17.72;65.29
48630;BME280;34426;52.180;4.462;2023-07-30T04:06:49;100952.44;;;17.67;65.40
48630;BME280;34426;52.180;4.462;2023-07-30T04:09:14;100963.50;;;17.63;65.70
48630;BME280;34426;52.180;4.462;2023-07-30T04:11:41;100955.03;;;17.63;66.06
48630;BME280;34426;52.180;4.462;2023-07-30T04:14:07;100950.53;;;17.62;66.24
48630;BME280;34426;52.180;4.462;2023-07-30T04:16:32;100957.63;;;17.59;65.97
48630;BME280;34426;52.180;4.462;2023-07-30T04:18:58;100955.66;;;17.60;65.41
48630;BME280;34426;52.180;4.462;2023-07-30T04:21:23;100958.16;;;17.61;65.92
48630;BME280;34426;52.180;4.462;2023-07-30T04:23:49;100952.19;;;17.63;66.24
48630;BME280;34426;52.180;4.462;2023-07-30T04:26:14;100954.19;;;17.62;66.74
48630;BME280;34426;52.180;4.462;2023-07-30T04:28:41;100947.63;;;17.67;66.74
48630;BME280;34426;52.180;4.462;2023-07-30T04:31:07;100955.47;;;17.70;66.90
48630;BME280;34426;52.180;4.462;2023-07-30T04:33:33;100951.50;;;17.71;67.09
48630;BME280;34426;52.180;4.462;2023-07-30T04:35:58;100953.50;;;17.71;66.54
48630;BME280;34426;52.180;4.462;2023-07-30T04:38:24;100956.84;;;17.73;66.36
48630;BME280;34426;52.180;4.462;2023-07-30T04:40:50;100946.38;;;17.73;66.66
48630;BME280;34426;52.180;4.462;2023-07-30T04:43:15;100961.03;;;17.75;66.76
48630;BME280;34426;52.180;4.462;2023-07-30T04:45:42;100961.22;;;17.79;67.36
48630;BME280;34426;52.180;4.462;2023-07-30T04:48:08;100960.38;;;17.78;67.55
48630;BME280;34426;52.180;4.462;2023-07-30T04:50:33;100958.72;;;17.77;68.19
48630;BME280;34426;52.180;4.462;2023-07-30T04:53:00;100959.56;;;17.78;67.97
48630;BME280;34426;52.180;4.462;2023-07-30T04:55:25;100958.72;;;17.77;68.27
48630;BME280;34426;52.180;4.462;2023-07-30T04:57:51;100959.56;;;17.78;68.37
48630;BME280;34426;52.180;4.462;2023-07-30T05:00:16;100956.41;;;17.79;68.72
48630;BME280;34426;52.180;4.462;2023-07-30T05:02:43;100965.53;;;17.76;69.13
48630;BME280;34426;52.180;4.462;2023-07-30T05:05:09;100966.03;;;17.78;68.76
48630;BME280;34426;52.180;4.462;2023-07-30T05:07:34;100957.56;;;17.78;68.72
48630;BME280;34426;52.180;4.462;2023-07-30T05:10:00;100960.06;;;17.80;68.42
48630;BME280;34426;52.180;4.462;2023-07-30T05:12:25;100959.75;;;17.81;67.80
48630;BME280;34426;52.180;4.462;2023-07-30T05:14:52;100961.44;;;17.82;68.28
48630;BME280;34426;52.180;4.462;2023-07-30T05:17:17;100962.81;;;17.85;68.43
48630;BME280;34426;52.180;4.462;2023-07-30T05:19:44;100957.66;;;17.87;68.68
48630;BME280;34426;52.180;4.462;2023-07-30T05:22:10;100964.06;;;17.92;68.08
48630;BME280;34426;52.180;4.462;2023-07-30T05:24:35;100954.94;;;17.95;68.42
48630;BME280;34426;52.180;4.462;2023-07-30T05:27:01;100965.31;;;18.00;68.52
48630;BME280;34426;52.180;4.462;2023-07-30T05:29:26;100965.53;;;18.04;69.06
48630;BME280;34426;52.180;4.462;2023-07-30T05:31:52;100959.56;;;18.05;69.05
48630;BME280;34426;52.180;4.462;2023-07-30T05:34:17;100967.22;;;18.05;68.23
48630;BME280;34426;52.180;4.462;2023-07-30T05:36:44;100960.09;;;18.07;67.65
48630;BME280;34426;52.180;4.462;2023-07-30T05:39:10;100967.63;;;18.12;66.94
48630;BME280;34426;52.180;4.462;2023-07-30T05:41:35;100953.38;;;18.17;66.79
48630;BME280;34426;52.180;4.462;2023-07-30T05:44:01;100963.53;;;18.18;67.11
48630;BME280;34426;52.180;4.462;2023-07-30T05:46:29;100951.91;;;18.19;66.89
48630;BME280;34426;52.180;4.462;2023-07-30T05:48:54;100960.56;;;18.23;67.60
48630;BME280;34426;52.180;4.462;2023-07-30T05:51:20;100958.25;;;18.25;67.96
48630;BME280;34426;52.180;4.462;2023-07-30T05:53:47;100962.44;;;18.27;67.99
48630;BME280;34426;52.180;4.462;2023-07-30T05:56:12;100960.97;;;18.30;68.18
48630;BME280;34426;52.180;4.462;2023-07-30T05:58:38;100955.31;;;18.30;68.41
48630;BME280;34426;52.180;4.462;2023-07-30T06:01:03;100962.66;;;18.31;69.05
48630;BME280;34426;52.180;4.462;2023-07-30T06:03:29;100963.59;;;18.26;68.71
48630;BME280;34426;52.180;4.462;2023-07-30T06:05:54;100968.97;;;18.28;69.17
48630;BME280;34426;52.180;4.462;2023-07-30T06:08:20;100969.38;;;18.21;68.17
48630;BME280;34426;52.180;4.462;2023-07-30T06:10:47;100951.56;;;18.21;68.28
48630;BME280;34426;52.180;4.462;2023-07-30T06:13:15;100966.38;;;18.18;68.59
48630;BME280;34426;52.180;4.462;2023-07-30T06:15:41;100961.88;;;18.17;68.92
48630;BME280;34426;52.180;4.462;2023-07-30T06:18:06;100958.50;;;18.15;69.43
48630;BME280;34426;52.180;4.462;2023-07-30T06:20:32;100970.34;;;18.17;69.67
48630;BME280;34426;52.180;4.462;2023-07-30T06:22:57;100968.69;;;18.16;68.89
48630;BME280;34426;52.180;4.462;2023-07-30T06:25:23;100970.66;;;18.15;69.28
48630;BME280;34426;52.180;4.462;2023-07-30T06:27:50;100969.69;;;18.20;69.22
48630;BME280;34426;52.180;4.462;2023-07-30T06:30:16;100963.09;;;18.24;69.46
48630;BME280;34426;52.180;4.462;2023-07-30T06:32:41;100963.94;;;18.25;69.68
48630;BME280;34426;52.180;4.462;2023-07-30T06:35:07;100968.44;;;18.26;69.63
48630;BME280;34426;52.180;4.462;2023-07-30T06:37:33;100974.63;;;18.28;70.18
48630;BME280;34426;52.180;4.462;2023-07-30T06:39:58;100976.72;;;18.36;69.47
48630;BME280;34426;52.180;4.462;2023-07-30T06:42:24;100974.06;;;18.40;68.78
48630;BME280;34426;52.180;4.462;2023-07-30T06:44:51;100972.94;;;18.41;68.15
48630;BME280;34426;52.180;4.462;2023-07-30T06:47:16;100977.53;;;18.50;68.22
48630;BME280;34426;52.180;4.462;2023-07-30T06:49:42;100983.19;;;18.50;67.94
48630;BME280;34426;52.180;4.462;2023-07-30T06:52:07;100984.16;;;18.46;68.06
48630;BME280;34426;52.180;4.462;2023-07-30T06:54:33;100984.69;;;18.34;68.46
48630;BME280;34426;52.180;4.462;2023-07-30T06:56:58;100975.25;;;18.25;68.70
48630;BME280;34426;52.180;4.462;2023-07-30T06:59:24;100976.94;;;18.26;69.65
48630;BME280;34426;52.180;4.462;2023-07-30T07:01:51;100975.34;;;18.20;70.58
48630;BME280;34426;52.180;4.462;2023-07-30T07:04:17;100990.81;;;18.14;72.09
48630;BME280;34426;52.180;4.462;2023-07-30T07:06:42;100982.63;;;18.12;72.42
48630;BME280;34426;52.180;4.462;2023-07-30T07:09:08;101002.75;;;18.11;72.44
48630;BME280;34426;52.180;4.462;2023-07-30T07:11:33;100998.78;;;18.12;72.30
48630;BME280;34426;52.180;4.462;2023-07-30T07:13:59;100998.97;;;18.02;72.55
48630;BME280;34426;52.180;4.462;2023-07-30T07:16:24;101010.94;;;17.99;73.14
48630;BME280;34426;52.180;4.462;2023-07-30T07:18:54;101020.66;;;17.92;73.33
48630;BME280;34426;52.180;4.462;2023-07-30T07:21:20;101011.75;;;17.85;74.24
48630;BME280;34426;52.180;4.462;2023-07-30T07:23:45;101007.25;;;17.84;73.55
48630;BME280;34426;52.180;4.462;2023-07-30T07:26:11;101014.69;;;17.80;73.48
48630;BME280;34426;52.180;4.462;2023-07-30T07:28:36;101010.06;;;17.84;74.57
48630;BME280;34426;52.180;4.462;2023-07-30T07:31:02;101018.16;;;17.91;75.50
48630;BME280;34426;52.180;4.462;2023-07-30T07:33:30;101012.19;;;17.92;75.91
48630;BME280;34426;52.180;4.462;2023-07-30T07:36:04;101024.56;;;17.97;75.30
48630;BME280;34426;52.180;4.462;2023-07-30T07:38:31;101019.75;;;18.11;73.96
48630;BME280;34426;52.180;4.462;2023-07-30T07:40:57;101022.66;;;18.47;73.00
48630;BME280;34426;52.180;4.462;2023-07-30T07:43:26;101018.41;;;18.72;71.13
48630;BME280;34426;52.180;4.462;2023-07-30T07:45:51;101015.47;;;18.77;70.41
48630;BME280;34426;52.180;4.462;2023-07-30T07:48:20;101032.38;;;18.68;68.39
48630;BME280;34426;52.180;4.462;2023-07-30T07:50:45;101029.53;;;18.68;68.54
48630;BME280;34426;52.180;4.462;2023-07-30T07:53:12;101031.03;;;18.52;69.30
48630;BME280;34426;52.180;4.462;2023-07-30T07:55:38;101031.97;;;18.47;70.08
48630;BME280;34426;52.180;4.462;2023-07-30T07:58:03;101041.66;;;18.60;70.46
48630;BME280;34426;52.180;4.462;2023-07-30T08:00:29;101044.88;;;18.53;69.48
48630;BME280;34426;52.180;4.462;2023-07-30T08:02:54;101056.31;;;18.48;69.68
48630;BME280;34426;52.180;4.462;2023-07-30T08:05:20;101047.00;;;18.34;68.51
48630;BME280;34426;52.180;4.462;2023-07-30T08:07:48;101062.31;;;18.33;68.98
48630;BME280;34426;52.180;4.462;2023-07-30T08:10:15;101051.81;;;18.34;68.84
48630;BME280;34426;52.180;4.462;2023-07-30T08:12:41;101046.34;;;18.37;69.81
48630;BME280;34426;52.180;4.462;2023-07-30T08:15:08;101052.03;;;18.37;69.68
48630;BME280;34426;52.180;4.462;2023-07-30T08:17:33;101041.94;;;18.58;69.65
48630;BME280;34426;52.180;4.462;2023-07-30T08:19:59;101059.19;;;18.62;68.08
48630;BME280;34426;52.180;4.462;2023-07-30T08:22:24;101035.63;;;18.75;68.60
48630;BME280;34426;52.180;4.462;2023-07-30T08:24:50;101039.16;;;18.94;68.20
48630;BME280;34426;52.180;4.462;2023-07-30T08:27:18;101034.31;;;18.95;68.56
48630;BME280;34426;52.180;4.462;2023-07-30T08:29:45;101036.88;;;18.83;68.59
48630;BME280;34426;52.180;4.462;2023-07-30T08:32:10;101044.09;;;18.89;68.68
48630;BME280;34426;52.180;4.462;2023-07-30T08:34:36;101038.94;;;18.91;68.89
48630;BME280;34426;52.180;4.462;2023-07-30T08:37:02;101036.13;;;19.13;68.48
48630;BME280;34426;52.180;4.462;2023-07-30T08:39:27;101037.03;;;19.22;67.17
48630;BME280;34426;52.180;4.462;2023-07-30T08:41:53;101051.53;;;19.21;64.51
48630;BME280;34426;52.180;4.462;2023-07-30T08:44:20;101061.72;;;19.22;65.14
48630;BME280;34426;52.180;4.462;2023-07-30T08:46:49;101060.34;;;18.97;64.76
48630;BME280;34426;52.180;4.462;2023-07-30T08:49:15;101038.75;;;18.87;66.24
48630;BME280;34426;52.180;4.462;2023-07-30T08:51:41;101049.84;;;18.98;67.25
48630;BME280;34426;52.180;4.462;2023-07-30T08:54:09;101053.13;;;19.13;67.10
48630;BME280;34426;52.180;4.462;2023-07-30T08:56:35;101040.63;;;19.14;65.48
48630;BME280;34426;52.180;4.462;2023-07-30T08:59:01;101047.34;;;18.96;65.30
48630;BME280;34426;52.180;4.462;2023-07-30T09:01:30;101059.97;;;19.12;66.54
48630;BME280;34426;52.180;4.462;2023-07-30T09:03:57;101061.91;;;19.25;65.83
48630;BME280;34426;52.180;4.462;2023-07-30T09:06:26;101066.34;;;18.96;64.81
48630;BME280;34426;52.180;4.462;2023-07-30T09:08:52;101082.00;;;18.79;65.62
48630;BME280;34426;52.180;4.462;2023-07-30T09:11:18;101062.50;;;18.64;65.24
48630;BME280;34426;52.180;4.462;2023-07-30T09:13:44;101063.97;;;18.75;64.26
48630;BME280;34426;52.180;4.462;2023-07-30T09:16:09;101063.75;;;18.72;65.66
48630;BME280;34426;52.180;4.462;2023-07-30T09:18:40;101067.53;;;18.81;67.34
48630;BME280;34426;52.180;4.462;2023-07-30T09:21:06;101066.13;;;18.92;67.07
48630;BME280;34426;52.180;4.462;2023-07-30T09:23:31;101073.31;;;19.12;65.57
48630;BME280;34426;52.180;4.462;2023-07-30T09:25:58;101079.97;;;19.30;64.46
48630;BME280;34426;52.180;4.462;2023-07-30T09:28:30;101085.25;;;19.22;62.40
48630;BME280;34426;52.180;4.462;2023-07-30T09:31:00;101082.88;;;19.38;63.32
48630;BME280;34426;52.180;4.462;2023-07-30T09:33:26;101081.28;;;19.68;63.61
48630;BME280;34426;52.180;4.462;2023-07-30T09:35:54;101106.31;;;19.66;62.41
48630;BME280;34426;52.180;4.462;2023-07-30T09:38:19;101104.97;;;19.27;62.41
48630;BME280;34426;52.180;4.462;2023-07-30T09:40:46;101100.34;;;19.32;63.70
48630;BME280;34426;52.180;4.462;2023-07-30T09:43:11;101108.34;;;19.30;63.35
48630;BME280;34426;52.180;4.462;2023-07-30T09:45:38;101096.47;;;19.50;63.66
48630;BME280;34426;52.180;4.462;2023-07-30T09:48:05;101102.75;;;19.60;62.21
48630;BME280;34426;52.180;4.462;2023-07-30T09:50:31;101128.13;;;19.79;61.15
48630;BME280;34426;52.180;4.462;2023-07-30T09:53:01;101124.47;;;20.10;61.55
48630;BME280;34426;52.180;4.462;2023-07-30T09:55:27;101109.41;;;20.09;60.19
48630;BME280;34426;52.180;4.462;2023-07-30T09:57:55;101100.19;;;20.04;61.09
48630;BME280;34426;52.180;4.462;2023-07-30T10:00:20;101121.53;;;19.92;61.83
48630;BME280;34426;52.180;4.462;2023-07-30T10:02:47;101114.56;;;19.54;64.69
48630;BME280;34426;52.180;4.462;2023-07-30T10:05:15;101126.16;;;19.44;64.95
48630;BME280;34426;52.180;4.462;2023-07-30T10:07:47;101121.03;;;19.68;64.17
48630;BME280;34426;52.180;4.462;2023-07-30T10:10:18;101134.91;;;19.92;62.58
48630;BME280;34426;52.180;4.462;2023-07-30T10:12:44;101125.47;;;19.83;63.53
48630;BME280;34426;52.180;4.462;2023-07-30T10:15:13;101118.31;;;19.63;64.84
48630;BME280;34426;52.180;4.462;2023-07-30T10:17:41;101129.91;;;19.53;64.28
48630;BME280;34426;52.180;4.462;2023-07-30T10:20:20;101126.28;;;19.39;63.33
48630;BME280;34426;52.180;4.462;2023-07-30T10:22:46;101130.88;;;19.71;63.93
48630;BME280;34426;52.180;4.462;2023-07-30T10:25:12;101138.69;;;19.87;63.55
48630;BME280;34426;52.180;4.462;2023-07-30T10:27:41;101148.16;;;20.05;62.46
48630;BME280;34426;52.180;4.462;2023-07-30T10:30:11;101141.47;;;20.32;62.22
48630;BME280;34426;52.180;4.462;2023-07-30T10:32:38;101139.41;;;20.24;63.20
48630;BME280;34426;52.180;4.462;2023-07-30T10:35:04;101147.94;;;20.24;63.62
48630;BME280;34426;52.180;4.462;2023-07-30T10:37:30;101139.41;;;20.24;62.51
48630;BME280;34426;52.180;4.462;2023-07-30T10:39:55;101151.81;;;20.28;62.66
48630;BME280;34426;52.180;4.462;2023-07-30T10:42:21;101153.56;;;20.46;62.37
48630;BME280;34426;52.180;4.462;2023-07-30T10:44:49;101166.28;;;20.49;62.08
48630;BME280;34426;52.180;4.462;2023-07-30T10:47:14;101164.28;;;20.49;62.03
48630;BME280;34426;52.180;4.462;2023-07-30T10:49:41;101164.34;;;20.05;63.74
48630;BME280;34426;52.180;4.462;2023-07-30T10:52:07;101165.75;;;20.16;63.77
48630;BME280;34426;52.180;4.462;2023-07-30T10:54:33;101160.47;;;20.23;62.75
48630;BME280;34426;52.180;4.462;2023-07-30T10:56:59;101166.56;;;20.39;63.14
48630;BME280;34426;52.180;4.462;2023-07-30T10:59:25;101149.09;;;20.54;62.38
48630;BME280;34426;52.180;4.462;2023-07-30T11:01:52;101157.66;;;20.63;62.84
48630;BME280;34426;52.180;4.462;2023-07-30T11:04:20;101175.59;;;20.72;62.35
48630;BME280;34426;52.180;4.462;2023-07-30T11:06:46;101159.13;;;20.51;61.72
48630;BME280;34426;52.180;4.462;2023-07-30T11:09:18;101155.16;;;20.61;61.87
48630;BME280;34426;52.180;4.462;2023-07-30T11:11:43;101167.84;;;20.55;62.83
48630;BME280;34426;52.180;4.462;2023-07-30T11:14:14;101179.38;;;20.58;63.04
48630;BME280;34426;52.180;4.462;2023-07-30T11:16:48;101177.84;;;20.52;62.87
48630;BME280;34426;52.180;4.462;2023-07-30T11:19:15;101195.69;;;20.44;63.52
48630;BME280;34426;52.180;4.462;2023-07-30T11:21:44;101176.94;;;20.83;62.89
48630;BME280;34426;52.180;4.462;2023-07-30T11:24:10;101183.56;;;20.30;63.62
48630;BME280;34426;52.180;4.462;2023-07-30T11:26:36;101183.44;;;20.13;64.94
48630;BME280;34426;52.180;4.462;2023-07-30T11:29:13;101172.31;;;20.47;64.63
48630;BME280;34426;52.180;4.462;2023-07-30T11:31:39;101200.22;;;20.45;63.19
48630;BME280;34426;52.180;4.462;2023-07-30T11:34:08;101189.72;;;20.54;63.55
48630;BME280;34426;52.180;4.462;2023-07-30T11:36:35;101199.97;;;20.33;63.13
48630;BME280;34426;52.180;4.462;2023-07-30T11:39:01;101193.38;;;20.46;62.93
48630;BME280;34426;52.180;4.462;2023-07-30T11:41:27;101190.09;;;20.62;62.99
48630;BME280;34426;52.180;4.462;2023-07-30T11:43:54;101179.16;;;20.86;62.52
48630;BME280;34426;52.180;4.462;2023-07-30T11:46:19;101187.19;;;20.92;61.59
48630;BME280;34426;52.180;4.462;2023-07-30T11:48:46;101184.13;;;20.72;61.73
48630;BME280;34426;52.180;4.462;2023-07-30T11:51:20;101195.91;;;20.96;61.81
48630;BME280;34426;52.180;4.462;2023-07-30T11:53:49;101195.34;;;21.34;60.59
48630;BME280;34426;52.180;4.462;2023-07-30T11:56:19;101178.19;;;20.99;61.07
48630;BME280;34426;52.180;4.462;2023-07-30T11:58:49;101217.28;;;20.85;61.11
48630;BME280;34426;52.180;4.462;2023-07-30T12:01:15;101194.53;;;20.76;61.01
48630;BME280;34426;52.180;4.462;2023-07-30T12:03:41;101198.03;;;20.73;60.95
48630;BME280;34426;52.180;4.462;2023-07-30T12:06:07;101187.22;;;21.01;60.26
48630;BME280;34426;52.180;4.462;2023-07-30T12:08:34;101219.94;;;20.73;60.51
48630;BME280;34426;52.180;4.462;2023-07-30T12:11:03;101197.19;;;20.73;61.03
48630;BME280;34426;52.180;4.462;2023-07-30T12:13:29;101195.47;;;21.11;60.32
48630;BME280;34426;52.180;4.462;2023-07-30T12:15:59;101202.91;;;21.47;59.85
48630;BME280;34426;52.180;4.462;2023-07-30T12:18:25;101204.75;;;21.86;58.50
48630;BME280;34426;52.180;4.462;2023-07-30T12:20:52;101199.06;;;21.95;56.68
48630;BME280;34426;52.180;4.462;2023-07-30T12:23:17;101207.78;;;21.89;57.46
48630;BME280;34426;52.180;4.462;2023-07-30T12:25:43;101217.66;;;21.75;57.74
48630;BME280;34426;52.180;4.462;2023-07-30T12:28:10;101223.34;;;21.83;57.04
48630;BME280;34426;52.180;4.462;2023-07-30T12:30:36;101194.03;;;21.22;58.79
48630;BME280;34426;52.180;4.462;2023-07-30T12:33:02;101212.13;;;21.44;60.01
48630;BME280;34426;52.180;4.462;2023-07-30T12:35:27;101215.47;;;21.46;59.57
48630;BME280;34426;52.180;4.462;2023-07-30T12:37:53;101213.81;;;21.71;57.74
48630;BME280;34426;52.180;4.462;2023-07-30T12:40:18;101213.00;;;22.05;56.44
48630;BME280;34426;52.180;4.462;2023-07-30T12:42:44;101214.97;;;22.30;56.79
48630;BME280;34426;52.180;4.462;2023-07-30T12:45:11;101206.81;;;22.03;55.29